Time;durP1;ratioP1;P1;durP2;ratioP2;P2;SDS_P1;SDS_P2;PMS_P1;PMS_P2;Temp;Humidity;BMP_temperature;BMP_pressure;BME280_temperature;BME280_humidity;BME280_pressure;Samples;Min_cycle;Max_cycle;Signal;HPM_P1;HPM_P2
2021/07/13 00:01:14;;;;;;;;;7.00;7.00;;;;;;;;5051503;28;46131;-77
2021/07/13 00:03:39;;;;;;;;;8.33;6.00;;;;;;;;5052222;28;46286;-78
2021/07/13 00:06:04;;;;;;;;;7.00;7.00;;;;;;;;5052969;28;45533;-75
2021/07/13 00:08:30;;;;;;;;;14.00;10.00;;;;;;;;5052766;28;45416;-75
2021/07/13 00:10:55;;;;;;;;;10.00;10.00;;;;;;;;5054363;28;45949;-77
2021/07/13 00:13:20;;;;;;;;;8.75;7.00;;;;;;;;5052699;28;45473;-77
2021/07/13 00:15:45;;;;;;;;;9.67;8.00;;;;;;;;5052251;28;45521;-77
2021/07/13 00:18:11;;;;;;;;;9.75;9.50;;;;;;;;5052333;28;45534;-78
2021/07/13 00:20:37;;;;;;;;;9.50;9.00;;;;;;;;5054559;28;46276;-75
2021/07/13 00:23:03;;;;;;;;;10.25;9.50;;;;;;;;5053856;28;45646;-77
2021/07/13 00:25:29;;;;;;;;;11.00;8.00;;;;;;;;5069854;27;45591;-77
2021/07/13 00:27:55;;;;;;;;;10.75;8.00;;;;;;;;5052593;28;45563;-77
2021/07/13 00:30:21;;;;;;;;;10.00;9.00;;;;;;;;5053869;28;46064;-78
2021/07/13 00:32:47;;;;;;;;;11.25;7.75;;;;;;;;5051979;28;45562;-75
2021/07/13 00:35:12;;;;;;;;;11.00;11.00;;;;;;;;5052054;28;45760;-75
2021/07/13 00:37:37;;;;;;;;;9.25;9.25;;;;;;;;5054369;28;45687;-75
2021/07/13 00:40:04;;;;;;;;;10.33;10.33;;;;;;;;5051008;28;47059;-77
2021/07/13 00:42:29;;;;;;;;;10.75;8.00;;;;;;;;5051054;28;45874;-77
2021/07/13 00:44:55;;;;;;;;;10.25;9.00;;;;;;;;5051709;28;45542;-78
2021/07/13 00:47:21;;;;;;;;;9.25;9.00;;;;;;;;5050312;28;45766;-77
2021/07/13 00:49:47;;;;;;;;;13.50;10.00;;;;;;;;5055254;28;45449;-77
2021/07/13 00:52:12;;;;;;;;;16.75;12.25;;;;;;;;5052578;28;45549;-77
2021/07/13 00:54:39;;;;;;;;;11.25;9.25;;;;;;;;5051570;28;45702;-76
2021/07/13 00:57:11;;;;;;;;;9.25;7.50;;;;;;;;5052536;28;45509;-77
2021/07/13 00:59:38;;;;;;;;;10.75;9.25;;;;;;;;5050002;28;46487;-77
2021/07/13 01:02:04;;;;;;;;;8.00;8.00;;;;;;;;5051843;28;46076;-76
2021/07/13 01:04:30;;;;;;;;;7.75;6.75;;;;;;;;5053579;28;45494;-76
2021/07/13 01:07:07;;;;;;;;;9.00;7.75;;;;;;;;5051680;28;45539;-76
2021/07/13 01:09:53;;;;;;;;;14.75;11.00;;;;;;;;5050737;28;45538;-77
2021/07/13 01:12:28;;;;;;;;;12.75;11.00;;;;;;;;5051100;28;45708;-77
2021/07/13 01:14:54;;;;;;;;;10.75;9.00;;;;;;;;5051908;28;45573;-77
2021/07/13 01:17:25;;;;;;;;;13.25;11.75;;;;;;;;5051526;28;45562;-77
2021/07/13 01:20:11;;;;;;;;;16.50;13.50;;;;;;;;5052877;28;46280;-77
2021/07/13 01:22:43;;;;;;;;;12.50;9.50;;;;;;;;5011233;28;45749;-76
2021/07/13 01:25:08;;;;;;;;;9.00;9.00;;;;;;;;5010005;28;46259;-77
2021/07/13 01:27:39;;;;;;;;;17.00;11.00;;;;;;;;5008520;28;46161;-76
2021/07/13 01:30:13;;;;;;;;;14.50;13.50;;;;;;;;5004272;28;46184;-77
2021/07/13 01:32:39;;;;;;;;;13.00;11.50;;;;;;;;5007193;28;45515;-77
2021/07/13 01:35:07;;;;;;;;;22.50;11.75;;;;;;;;4993483;28;45640;-76
2021/07/13 01:37:33;;;;;;;;;16.75;14.25;;;;;;;;5010986;28;45495;-77
2021/07/13 01:40:00;;;;;;;;;14.75;11.75;;;;;;;;5009208;28;45606;-77
2021/07/13 01:42:26;;;;;;;;;12.75;10.50;;;;;;;;5006662;28;46050;-76
2021/07/13 01:44:52;;;;;;;;;13.50;13.25;;;;;;;;5006824;28;46535;-77
2021/07/13 01:47:18;;;;;;;;;14.50;12.75;;;;;;;;5007356;28;45595;-77
2021/07/13 01:49:45;;;;;;;;;11.50;11.50;;;;;;;;5009689;28;45980;-77
2021/07/13 01:52:10;;;;;;;;;16.25;11.75;;;;;;;;5024327;28;46077;-77
2021/07/13 01:54:36;;;;;;;;;11.75;11.75;;;;;;;;4993164;28;45847;-76
2021/07/13 01:57:02;;;;;;;;;16.25;13.00;;;;;;;;5008633;28;45460;-77
2021/07/13 01:59:28;;;;;;;;;11.50;11.50;;;;;;;;5023753;28;46121;-77
2021/07/13 02:01:56;;;;;;;;;13.25;10.25;;;;;;;;5052324;28;45413;-76
2021/07/13 02:04:26;;;;;;;;;13.00;9.50;;;;;;;;5052441;28;45456;-75
2021/07/13 02:06:51;;;;;;;;;12.75;11.75;;;;;;;;5050587;28;45690;-75
2021/07/13 02:09:16;;;;;;;;;13.75;10.00;;;;;;;;5051050;28;46072;-75
2021/07/13 02:11:43;;;;;;;;;13.50;11.50;;;;;;;;5052865;28;45541;-77
2021/07/13 02:14:09;;;;;;;;;11.00;9.00;;;;;;;;5049592;28;45756;-75
2021/07/13 02:16:34;;;;;;;;;10.50;9.00;;;;;;;;5052895;28;45413;-77
2021/07/13 02:18:59;;;;;;;;;14.00;13.00;;;;;;;;5049818;28;46604;-76
2021/07/13 02:21:24;;;;;;;;;16.00;10.67;;;;;;;;5049985;28;45456;-77
2021/07/13 02:23:50;;;;;;;;;10.00;10.00;;;;;;;;5050494;28;45424;-77
2021/07/13 02:26:19;;;;;;;;;13.50;10.75;;;;;;;;5051615;28;45679;-75
2021/07/13 02:28:46;;;;;;;;;12.25;11.00;;;;;;;;5052243;28;46360;-77
2021/07/13 02:31:24;;;;;;;;;11.25;9.25;;;;;;;;5054026;28;46113;-77
2021/07/13 02:33:57;;;;;;;;;13.50;10.00;;;;;;;;5050345;28;45654;-77
2021/07/13 02:36:25;;;;;;;;;13.00;11.25;;;;;;;;5049211;28;45605;-75
2021/07/13 02:38:51;;;;;;;;;12.75;11.25;;;;;;;;5049659;28;45584;-78
2021/07/13 02:41:17;;;;;;;;;11.25;10.00;;;;;;;;5050021;28;45489;-77
2021/07/13 02:43:43;;;;;;;;;11.50;8.00;;;;;;;;5051196;28;45261;-75
2021/07/13 02:46:09;;;;;;;;;12.25;7.25;;;;;;;;5047505;28;45591;-77
2021/07/13 02:48:36;;;;;;;;;8.75;8.75;;;;;;;;5048025;28;47743;-78
2021/07/13 02:51:01;;;;;;;;;8.25;7.50;;;;;;;;5049655;28;45397;-77
2021/07/13 02:53:27;;;;;;;;;10.00;9.00;;;;;;;;5050506;28;45481;-77
2021/07/13 02:55:53;;;;;;;;;11.75;11.25;;;;;;;;5051034;28;45410;-77
2021/07/13 02:58:19;;;;;;;;;10.50;8.75;;;;;;;;5049449;28;45999;-78
2021/07/13 03:00:45;;;;;;;;;13.25;11.25;;;;;;;;5048081;28;46552;-77
2021/07/13 03:03:11;;;;;;;;;10.50;8.25;;;;;;;;5048029;28;45327;-77
2021/07/13 03:05:37;;;;;;;;;9.00;7.50;;;;;;;;5048358;28;45446;-77
2021/07/13 03:08:03;;;;;;;;;11.50;8.25;;;;;;;;5048918;28;46194;-77
2021/07/13 03:10:30;;;;;;;;;9.25;8.25;;;;;;;;5049073;28;45415;-77
2021/07/13 03:12:55;;;;;;;;;9.75;8.25;;;;;;;;5048660;28;45890;-77
2021/07/13 03:15:21;;;;;;;;;9.00;8.00;;;;;;;;5048038;28;45480;-77
2021/07/13 03:17:47;;;;;;;;;7.00;6.25;;;;;;;;5048651;28;46007;-77
2021/07/13 03:20:12;;;;;;;;;13.25;8.75;;;;;;;;5047424;28;45649;-76
2021/07/13 03:22:42;;;;;;;;;7.75;7.75;;;;;;;;5050980;28;45489;-76
2021/07/13 03:25:09;;;;;;;;;13.75;7.75;;;;;;;;5049077;28;45534;-77
2021/07/13 03:27:35;;;;;;;;;9.00;8.00;;;;;;;;5048364;28;46123;-76
2021/07/13 03:30:00;;;;;;;;;12.75;9.25;;;;;;;;5046604;28;45537;-76
2021/07/13 03:32:26;;;;;;;;;13.50;10.00;;;;;;;;5048481;28;45559;-77
2021/07/13 03:34:51;;;;;;;;;10.75;7.25;;;;;;;;5050126;28;45466;-76
2021/07/13 03:37:17;;;;;;;;;9.75;8.00;;;;;;;;5047113;28;46040;-77
2021/07/13 03:39:43;;;;;;;;;8.00;8.00;;;;;;;;5048694;28;46792;-77
2021/07/13 03:42:09;;;;;;;;;9.50;8.00;;;;;;;;5007316;28;1194313;-76
2021/07/13 03:44:34;;;;;;;;;9.50;7.75;;;;;;;;5051936;28;48860;-77
2021/07/13 03:47:00;;;;;;;;;12.00;7.00;;;;;;;;5062837;28;45691;-76
2021/07/13 03:49:26;;;;;;;;;8.00;8.00;;;;;;;;5053999;28;45784;-77
2021/07/13 03:51:51;;;;;;;;;13.25;9.75;;;;;;;;5048961;28;48865;-76
2021/07/13 03:54:18;;;;;;;;;11.75;11.75;;;;;;;;5052594;28;45543;-77
2021/07/13 03:56:45;;;;;;;;;9.25;9.25;;;;;;;;5060128;28;46162;-77
2021/07/13 03:59:11;;;;;;;;;10.75;10.75;;;;;;;;5055801;28;45454;-76
2021/07/13 04:01:36;;;;;;;;;13.33;10.00;;;;;;;;5060609;28;45544;-76
2021/07/13 04:04:02;;;;;;;;;13.50;10.50;;;;;;;;5071875;27;45616;-75
2021/07/13 04:06:27;;;;;;;;;9.75;9.75;;;;;;;;5059363;27;45926;-76
2021/07/13 04:08:53;;;;;;;;;11.75;10.25;;;;;;;;5061158;28;45343;-76
2021/07/13 04:11:18;;;;;;;;;10.50;10.50;;;;;;;;5061343;28;45333;-76
2021/07/13 04:13:44;;;;;;;;;14.75;14.75;;;;;;;;5058848;28;45546;-76
2021/07/13 04:16:09;;;;;;;;;18.00;10.50;;;;;;;;5040893;28;48079;-76
2021/07/13 04:18:35;;;;;;;;;13.25;13.25;;;;;;;;5038471;28;45644;-76
2021/07/13 04:21:00;;;;;;;;;12.33;12.33;;;;;;;;5049371;28;45387;-76
2021/07/13 04:23:25;;;;;;;;;13.67;10.67;;;;;;;;5036883;28;45351;-76
2021/07/13 04:25:50;;;;;;;;;15.00;12.00;;;;;;;;5049333;28;45382;-77
2021/07/13 04:28:15;;;;;;;;;17.67;13.67;;;;;;;;5049165;28;45267;-76
2021/07/13 04:30:41;;;;;;;;;12.67;11.33;;;;;;;;5049385;28;45517;-76
2021/07/13 04:33:06;;;;;;;;;12.67;11.33;;;;;;;;5050986;28;45384;-76
2021/07/13 04:35:31;;;;;;;;;17.33;13.00;;;;;;;;5055322;28;45397;-76
2021/07/13 04:37:56;;;;;;;;;13.25;12.25;;;;;;;;5063122;28;45351;-76
2021/07/13 04:40:22;;;;;;;;;15.33;12.33;;;;;;;;5057789;28;45599;-76
2021/07/13 04:42:48;;;;;;;;;19.00;13.75;;;;;;;;5057789;28;45396;-76
2021/07/13 04:45:13;;;;;;;;;14.50;12.50;;;;;;;;5062187;28;48076;-75
2021/07/13 04:47:38;;;;;;;;;13.50;11.50;;;;;;;;5063640;28;45923;-76
2021/07/13 04:50:05;;;;;;;;;13.25;10.75;;;;;;;;5059561;28;45625;-76
2021/07/13 04:52:30;;;;;;;;;15.25;12.25;;;;;;;;5055200;28;45464;-76
2021/07/13 04:54:55;;;;;;;;;12.67;11.33;;;;;;;;5057191;28;46138;-76
2021/07/13 04:57:20;;;;;;;;;12.33;10.00;;;;;;;;5061348;28;45401;-77
2021/07/13 04:59:45;;;;;;;;;15.67;14.33;;;;;;;;5064707;28;45490;-76
2021/07/13 05:02:10;;;;;;;;;13.67;12.67;;;;;;;;5063925;28;45383;-76
2021/07/13 05:04:36;;;;;;;;;12.67;12.33;;;;;;;;5047089;28;45407;-76
2021/07/13 05:07:01;;;;;;;;;14.33;11.00;;;;;;;;5044203;28;45493;-77
2021/07/13 05:09:26;;;;;;;;;15.75;11.75;;;;;;;;5046704;28;45616;-76
2021/07/13 05:11:52;;;;;;;;;14.50;11.25;;;;;;;;5045376;28;45448;-76
2021/07/13 05:14:17;;;;;;;;;20.00;13.00;;;;;;;;5045795;28;45935;-76
2021/07/13 05:16:42;;;;;;;;;17.00;13.67;;;;;;;;5043711;28;45476;-76
2021/07/13 05:19:09;;;;;;;;;17.50;14.25;;;;;;;;5041055;28;45567;-76
2021/07/13 05:21:35;;;;;;;;;11.25;10.00;;;;;;;;5045614;28;45604;-76
2021/07/13 05:24:00;;;;;;;;;13.00;11.75;;;;;;;;5043407;28;48491;-76
2021/07/13 05:26:25;;;;;;;;;15.00;14.50;;;;;;;;5044288;28;45451;-76
2021/07/13 05:28:51;;;;;;;;;14.50;13.00;;;;;;;;5043797;28;45664;-76
2021/07/13 05:31:16;;;;;;;;;12.75;12.00;;;;;;;;5046067;28;45484;-75
2021/07/13 05:33:41;;;;;;;;;17.67;12.00;;;;;;;;5038526;28;46568;-75
2021/07/13 05:36:07;;;;;;;;;11.50;10.50;;;;;;;;5044389;28;45722;-75
2021/07/13 05:38:32;;;;;;;;;14.25;11.75;;;;;;;;5048073;28;45355;-76
2021/07/13 05:40:57;;;;;;;;;14.33;12.67;;;;;;;;5049899;28;45539;-76
2021/07/13 05:43:22;;;;;;;;;13.00;13.00;;;;;;;;5052404;28;46345;-76
2021/07/13 05:45:47;;;;;;;;;15.00;12.67;;;;;;;;5051768;28;45466;-77
2021/07/13 05:48:13;;;;;;;;;15.67;13.33;;;;;;;;5052539;28;45545;-77
2021/07/13 05:50:38;;;;;;;;;14.00;11.75;;;;;;;;5053196;28;45364;-75
2021/07/13 05:53:04;;;;;;;;;11.67;11.67;;;;;;;;5050145;28;46202;-76
2021/07/13 05:55:29;;;;;;;;;11.25;10.75;;;;;;;;5056240;28;46722;-75
2021/07/13 05:57:54;;;;;;;;;14.75;13.25;;;;;;;;5054034;28;45459;-75
2021/07/13 06:00:19;;;;;;;;;18.00;13.00;;;;;;;;5054348;28;45561;-76
2021/07/13 06:02:45;;;;;;;;;17.25;14.75;;;;;;;;5063747;28;46257;-76
2021/07/13 06:05:10;;;;;;;;;13.33;13.33;;;;;;;;5057864;28;45441;-76
2021/07/13 06:07:46;;;;;;;;;16.00;12.50;;;;;;;;5058741;28;45439;-76
2021/07/13 06:10:11;;;;;;;;;21.50;16.25;;;;;;;;5051262;28;45411;-76
2021/07/13 06:12:37;;;;;;;;;21.25;15.25;;;;;;;;5052271;28;45375;-76
2021/07/13 06:15:03;;;;;;;;;22.75;15.25;;;;;;;;5063151;28;45555;-75
2021/07/13 06:17:28;;;;;;;;;16.75;14.50;;;;;;;;5062737;28;45859;-75
2021/07/13 06:19:53;;;;;;;;;15.67;15.00;;;;;;;;5043329;28;45548;-76
2021/07/13 06:22:19;;;;;;;;;20.25;14.25;;;;;;;;5050206;28;45494;-76
2021/07/13 06:24:44;;;;;;;;;18.33;15.00;;;;;;;;5051539;28;45313;-76
2021/07/13 06:27:09;;;;;;;;;24.67;16.67;;;;;;;;5051727;28;45607;-76
2021/07/13 06:29:34;;;;;;;;;19.00;16.00;;;;;;;;5062522;28;48331;-76
2021/07/13 06:31:59;;;;;;;;;17.33;15.33;;;;;;;;5061054;28;48088;-74
2021/07/13 06:34:25;;;;;;;;;18.67;14.67;;;;;;;;5057649;28;45638;-76
2021/07/13 06:36:50;;;;;;;;;18.00;16.33;;;;;;;;5040060;28;46010;-75
2021/07/13 06:39:15;;;;;;;;;22.33;17.00;;;;;;;;5047086;28;45396;-74
2021/07/13 06:41:41;;;;;;;;;21.50;17.25;;;;;;;;5052332;28;45514;-75
2021/07/13 06:44:06;;;;;;;;;21.75;15.75;;;;;;;;5053555;28;45572;-77
2021/07/13 06:46:33;;;;;;;;;18.75;17.25;;;;;;;;5053183;28;45454;-74
2021/07/13 06:49:01;;;;;;;;;19.00;14.50;;;;;;;;5054092;28;45629;-77
2021/07/13 06:51:26;;;;;;;;;21.50;16.25;;;;;;;;5052993;27;45553;-77
2021/07/13 06:53:51;;;;;;;;;18.67;16.00;;;;;;;;5053619;28;45334;-77
2021/07/13 06:56:16;;;;;;;;;19.67;18.67;;;;;;;;5061102;28;45437;-78
2021/07/13 06:58:41;;;;;;;;;19.33;15.00;;;;;;;;5059840;28;45489;-77
2021/07/13 07:01:07;;;;;;;;;17.33;15.67;;;;;;;;5053773;28;45466;-77
2021/07/13 07:03:32;;;;;;;;;19.00;17.00;;;;;;;;5052833;28;45312;-76
2021/07/13 07:05:57;;;;;;;;;17.33;13.33;;;;;;;;5061603;28;45376;-76
2021/07/13 07:08:22;;;;;;;;;16.33;14.00;;;;;;;;5061421;28;45500;-76
2021/07/13 07:10:47;;;;;;;;;15.33;13.33;;;;;;;;5063182;28;46106;-77
2021/07/13 07:13:13;;;;;;;;;20.67;16.33;;;;;;;;5055351;28;45445;-76
2021/07/13 07:15:38;;;;;;;;;23.67;19.67;;;;;;;;5056134;28;45465;-76
2021/07/13 07:18:03;;;;;;;;;23.67;15.67;;;;;;;;5060600;28;45528;-76
2021/07/13 07:20:28;;;;;;;;;17.67;17.00;;;;;;;;5060632;28;46188;-76
2021/07/13 07:22:57;;;;;;;;;23.50;19.50;;;;;;;;5063408;28;45513;-76
2021/07/13 07:25:23;;;;;;;;;20.00;18.00;;;;;;;;5057078;28;45267;-76
2021/07/13 07:27:48;;;;;;;;;20.75;17.25;;;;;;;;5054935;28;45526;-76
2021/07/13 07:30:14;;;;;;;;;20.25;18.00;;;;;;;;5051573;28;45974;-76
2021/07/13 07:32:40;;;;;;;;;18.00;17.50;;;;;;;;5054012;28;46319;-77
2021/07/13 07:35:06;;;;;;;;;19.25;17.25;;;;;;;;5050564;28;46025;-76
2021/07/13 07:37:32;;;;;;;;;23.50;17.75;;;;;;;;5052542;28;45503;-77
2021/07/13 07:39:57;;;;;;;;;28.75;18.25;;;;;;;;5053218;28;47507;-77
2021/07/13 07:42:22;;;;;;;;;22.67;19.33;;;;;;;;5057102;28;45446;-77
2021/07/13 07:44:48;;;;;;;;;48.00;37.00;;;;;;;;5053099;28;45465;-75
2021/07/13 07:47:13;;;;;;;;;32.25;27.25;;;;;;;;5062531;28;45303;-77
2021/07/13 07:49:38;;;;;;;;;32.00;26.00;;;;;;;;5053101;28;46053;-76
2021/07/13 07:52:04;;;;;;;;;22.25;20.75;;;;;;;;5049229;28;45526;-76
2021/07/13 07:54:30;;;;;;;;;22.75;18.00;;;;;;;;5052926;28;45373;-77
2021/07/13 07:56:55;;;;;;;;;17.75;16.50;;;;;;;;5060394;28;45605;-76
2021/07/13 07:59:21;;;;;;;;;19.00;17.00;;;;;;;;5059527;28;45910;-76
2021/07/13 08:01:46;;;;;;;;;24.75;17.00;;;;;;;;5061275;28;45510;-76
2021/07/13 08:04:12;;;;;;;;;17.50;15.75;;;;;;;;5056056;28;45451;-77
2021/07/13 08:06:37;;;;;;;;;22.00;16.67;;;;;;;;5055041;28;45475;-76
2021/07/13 08:09:02;;;;;;;;;19.25;16.75;;;;;;;;5060322;28;46089;-76
2021/07/13 08:11:27;;;;;;;;;19.25;16.00;;;;;;;;5060640;28;45554;-77
2021/07/13 08:13:53;;;;;;;;;14.67;13.00;;;;;;;;5063919;28;45449;-76
2021/07/13 08:16:18;;;;;;;;;14.67;12.00;;;;;;;;5058030;28;45452;-77
2021/07/13 08:18:43;;;;;;;;;19.33;15.33;;;;;;;;5059088;28;45994;-77
2021/07/13 08:21:08;;;;;;;;;16.67;11.33;;;;;;;;5062176;28;45572;-76
2021/07/13 08:23:34;;;;;;;;;16.67;14.33;;;;;;;;5053719;28;45566;-76
2021/07/13 08:25:59;;;;;;;;;13.25;13.00;;;;;;;;5057621;28;45422;-77
2021/07/13 08:28:24;;;;;;;;;14.67;14.00;;;;;;;;5060973;28;45596;-77
2021/07/13 08:30:49;;;;;;;;;18.33;15.33;;;;;;;;5055492;28;45446;-77
2021/07/13 08:33:15;;;;;;;;;22.33;16.00;;;;;;;;5053132;28;45499;-77
2021/07/13 08:35:40;;;;;;;;;15.00;13.33;;;;;;;;5053673;28;45462;-77
2021/07/13 08:38:05;;;;;;;;;17.25;15.25;;;;;;;;5035739;28;45757;-77
2021/07/13 08:40:32;;;;;;;;;19.00;15.75;;;;;;;;5053519;28;46063;-79
2021/07/13 08:42:57;;;;;;;;;15.75;14.25;;;;;;;;5053865;28;45472;-78
2021/07/13 08:45:24;;;;;;;;;16.50;13.25;;;;;;;;5053700;28;45426;-78
2021/07/13 08:47:54;;;;;;;;;13.50;12.00;;;;;;;;5053906;28;45963;-78
2021/07/13 08:50:20;;;;;;;;;15.00;12.50;;;;;;;;5049696;28;45868;-79
2021/07/13 08:52:46;;;;;;;;;10.00;9.75;;;;;;;;5052981;28;45567;-77
2021/07/13 08:55:11;;;;;;;;;14.75;13.50;;;;;;;;5051041;28;45568;-77
2021/07/13 08:57:41;;;;;;;;;12.50;10.25;;;;;;;;5051746;28;46187;-78
2021/07/13 09:00:07;;;;;;;;;16.75;13.00;;;;;;;;5053190;28;45737;-78
2021/07/13 09:02:33;;;;;;;;;17.75;12.50;;;;;;;;5052836;28;45997;-77
2021/07/13 09:04:58;;;;;;;;;16.50;14.00;;;;;;;;5052212;28;45633;-79
2021/07/13 09:07:23;;;;;;;;;14.33;12.67;;;;;;;;5049057;28;46252;-78
2021/07/13 09:09:52;;;;;;;;;13.50;13.50;;;;;;;;5044407;28;45609;-79
2021/07/13 09:12:18;;;;;;;;;17.50;14.25;;;;;;;;5048244;28;45493;-78
2021/07/13 09:15:00;;;;;;;;;14.50;11.25;;;;;;;;5051371;28;45456;-79
2021/07/13 09:17:33;;;;;;;;;14.00;13.00;;;;;;;;5058950;28;45532;-77
2021/07/13 09:19:58;;;;;;;;;15.50;12.75;;;;;;;;5043749;28;45868;-77
2021/07/13 09:22:23;;;;;;;;;15.75;12.50;;;;;;;;5052716;28;45527;-78
2021/07/13 09:24:48;;;;;;;;;15.00;10.00;;;;;;;;5054092;28;45565;-77
2021/07/13 09:27:17;;;;;;;;;12.00;9.67;;;;;;;;5059976;28;45397;-78
2021/07/13 09:29:44;;;;;;;;;12.75;10.00;;;;;;;;5062313;28;45513;-77
2021/07/13 09:32:23;;;;;;;;;8.25;8.25;;;;;;;;5064398;28;45692;-77
2021/07/13 09:34:56;;;;;;;;;13.75;12.00;;;;;;;;5045193;28;45894;-77
2021/07/13 09:37:26;;;;;;;;;11.00;8.50;;;;;;;;5052376;28;45431;-77
2021/07/13 09:39:55;;;;;;;;;15.00;7.75;;;;;;;;5051438;28;45791;-77
2021/07/13 09:42:21;;;;;;;;;10.00;8.25;;;;;;;;5053199;28;45699;-77
2021/07/13 09:44:47;;;;;;;;;7.00;5.25;;;;;;;;5051392;28;45377;-77
2021/07/13 09:47:26;;;;;;;;;8.75;7.50;;;;;;;;5049907;28;46181;-77
2021/07/13 09:49:51;;;;;;;;;8.00;8.00;;;;;;;;5061277;28;45499;-78
2021/07/13 09:52:22;;;;;;;;;9.50;8.75;;;;;;;;5050448;28;48577;-77
2021/07/13 09:54:47;;;;;;;;;8.25;7.00;;;;;;;;5049531;28;45561;-77
2021/07/13 09:57:17;;;;;;;;;7.75;7.00;;;;;;;;5051100;28;47024;-77
2021/07/13 09:59:43;;;;;;;;;9.75;8.50;;;;;;;;5050920;28;45911;-77
2021/07/13 10:02:09;;;;;;;;;11.00;7.25;;;;;;;;5052689;28;45925;-77
2021/07/13 10:04:35;;;;;;;;;13.00;7.00;;;;;;;;5070978;27;45468;-77
2021/07/13 10:07:04;;;;;;;;;10.00;7.00;;;;;;;;5040535;28;48277;-77
2021/07/13 10:09:31;;;;;;;;;6.00;6.00;;;;;;;;5044324;28;45477;-76
2021/07/13 10:11:57;;;;;;;;;9.00;5.00;;;;;;;;5050962;28;46110;-77
2021/07/13 10:14:23;;;;;;;;;6.75;6.25;;;;;;;;5052148;28;45472;-78
2021/07/13 10:16:48;;;;;;;;;8.25;5.75;;;;;;;;5053617;28;46300;-77
2021/07/13 10:19:14;;;;;;;;;6.75;5.50;;;;;;;;5048809;28;45457;-76
2021/07/13 10:21:39;;;;;;;;;7.00;6.25;;;;;;;;5042816;28;45534;-77
2021/07/13 10:24:05;;;;;;;;;10.00;7.00;;;;;;;;5039661;28;45492;-77
2021/07/13 10:26:43;;;;;;;;;7.75;6.25;;;;;;;;5032618;28;46491;-78
2021/07/13 10:29:27;;;;;;;;;13.75;9.25;;;;;;;;5047339;28;45384;-78
2021/07/13 10:31:52;;;;;;;;;10.25;10.25;;;;;;;;5050004;28;45315;-77
2021/07/13 10:34:37;;;;;;;;;11.00;8.67;;;;;;;;5040579;28;45270;-76
2021/07/13 10:37:26;;;;;;;;;17.00;14.00;;;;;;;;5039498;28;46414;-77
2021/07/13 10:39:51;;;;;;;;;17.25;11.25;;;;;;;;5045333;28;45906;-76
2021/07/13 10:42:35;;;;;;;;;17.75;13.75;;;;;;;;5049915;28;45625;-78
2021/07/13 10:45:16;;;;;;;;;18.75;16.00;;;;;;;;5043641;28;45424;-77
2021/07/13 10:48:00;;;;;;;;;17.50;14.75;;;;;;;;5052717;27;47230;-77
2021/07/13 10:50:26;;;;;;;;;23.00;16.50;;;;;;;;5036076;28;45687;-76
2021/07/13 10:52:57;;;;;;;;;27.50;22.75;;;;;;;;5038482;28;45868;-77
2021/07/13 10:55:31;;;;;;;;;22.25;19.00;;;;;;;;5051768;28;45585;-76
2021/07/13 10:58:08;;;;;;;;;29.25;21.25;;;;;;;;5043387;28;46222;-76
2021/07/13 11:00:58;;;;;;;;;37.50;31.50;;;;;;;;5059093;27;45455;-76
2021/07/13 11:03:32;;;;;;;;;28.50;18.75;;;;;;;;5046437;28;45422;-76
2021/07/13 11:05:57;;;;;;;;;20.75;18.00;;;;;;;;5048380;28;45570;-76
2021/07/13 11:08:41;;;;;;;;;20.33;19.00;;;;;;;;5048720;28;46044;-76
2021/07/13 11:11:06;;;;;;;;;19.75;17.00;;;;;;;;5034732;28;45509;-76
2021/07/13 11:13:32;;;;;;;;;17.67;17.33;;;;;;;;5045349;28;45503;-79
2021/07/13 11:15:57;;;;;;;;;22.25;18.25;;;;;;;;5047593;28;45450;-78
2021/07/13 11:18:29;;;;;;;;;21.67;17.33;;;;;;;;5048160;28;45417;-79
2021/07/13 11:20:54;;;;;;;;;25.50;19.50;;;;;;;;5048376;28;45647;-79
2021/07/13 11:23:26;;;;;;;;;25.33;23.67;;;;;;;;5049296;28;45389;-78
2021/07/13 11:26:04;;;;;;;;;23.00;20.00;;;;;;;;5053054;28;45959;-78
2021/07/13 11:28:29;;;;;;;;;31.25;21.75;;;;;;;;5050157;28;46173;-78
2021/07/13 11:30:54;;;;;;;;;21.33;20.67;;;;;;;;5039274;28;45980;-78
2021/07/13 11:33:24;;;;;;;;;24.25;20.75;;;;;;;;5047620;28;45307;-78
2021/07/13 11:35:53;;;;;;;;;28.00;20.25;;;;;;;;5047847;28;45499;-78
2021/07/13 11:38:26;;;;;;;;;25.00;21.25;;;;;;;;5035662;28;46173;-78
2021/07/13 11:41:07;;;;;;;;;23.50;17.00;;;;;;;;5051690;28;45466;-78
2021/07/13 11:43:32;;;;;;;;;23.75;22.50;;;;;;;;5049831;28;45411;-78
2021/07/13 11:46:13;;;;;;;;;24.33;20.00;;;;;;;;5050454;28;46101;-78
2021/07/13 11:48:39;;;;;;;;;24.75;20.00;;;;;;;;5049751;28;48116;-79
2021/07/13 11:51:04;;;;;;;;;21.75;20.25;;;;;;;;5049473;28;45475;-78
2021/07/13 11:53:31;;;;;;;;;22.50;21.00;;;;;;;;5047244;28;45733;-77
2021/07/13 11:55:57;;;;;;;;;23.50;19.50;;;;;;;;5050313;28;46192;-78
2021/07/13 11:58:27;;;;;;;;;23.75;19.00;;;;;;;;5045995;28;46564;-77
2021/07/13 12:00:52;;;;;;;;;26.75;18.25;;;;;;;;5052976;28;45944;-78
2021/07/13 12:03:30;;;;;;;;;24.75;23.25;;;;;;;;5053688;28;45529;-78
2021/07/13 12:06:08;;;;;;;;;26.25;20.25;;;;;;;;5051616;28;45667;-79
2021/07/13 12:08:33;;;;;;;;;33.75;22.25;;;;;;;;5054178;28;46427;-78
2021/07/13 12:10:59;;;;;;;;;21.50;19.00;;;;;;;;5055078;28;45181;-76
2021/07/13 12:13:24;;;;;;;;;19.75;18.00;;;;;;;;5045904;28;45449;-77
2021/07/13 12:15:49;;;;;;;;;25.25;21.25;;;;;;;;5066864;27;45394;-77
2021/07/13 12:18:15;;;;;;;;;20.50;19.50;;;;;;;;5053803;28;47430;-78
2021/07/13 12:20:40;;;;;;;;;26.33;23.67;;;;;;;;5053859;28;45415;-77
2021/07/13 12:23:05;;;;;;;;;31.00;21.00;;;;;;;;5038657;28;45561;-78
2021/07/13 12:25:30;;;;;;;;;20.50;18.50;;;;;;;;5062190;28;45471;-78
2021/07/13 12:28:08;;;;;;;;;24.00;21.75;;;;;;;;5055709;28;45484;-78
2021/07/13 12:30:33;;;;;;;;;31.75;23.50;;;;;;;;5053558;28;45431;-77
2021/07/13 12:33:05;;;;;;;;;26.33;18.67;;;;;;;;5052243;28;45482;-78
2021/07/13 12:35:30;;;;;;;;;26.25;22.25;;;;;;;;5054151;28;45590;-78
2021/07/13 12:37:55;;;;;;;;;30.75;23.25;;;;;;;;5055528;28;45447;-78
2021/07/13 12:40:27;;;;;;;;;26.33;22.33;;;;;;;;5054041;28;45487;-78
2021/07/13 12:42:52;;;;;;;;;28.75;22.50;;;;;;;;5051522;28;45423;-78
2021/07/13 12:45:20;;;;;;;;;25.00;21.50;;;;;;;;5053100;28;45476;-78
2021/07/13 12:47:49;;;;;;;;;24.25;19.50;;;;;;;;5050903;28;46344;-78
2021/07/13 12:50:15;;;;;;;;;23.75;21.00;;;;;;;;5069444;28;45918;-78
2021/07/13 12:52:42;;;;;;;;;27.67;19.67;;;;;;;;5055495;28;45535;-77
2021/07/13 12:55:11;;;;;;;;;22.50;19.00;;;;;;;;5085174;27;45905;-77
2021/07/13 12:57:37;;;;;;;;;24.75;23.75;;;;;;;;5053403;28;46193;-77
2021/07/13 13:00:09;;;;;;;;;22.75;20.50;;;;;;;;5051492;28;45882;-78
2021/07/13 13:02:35;;;;;;;;;27.50;22.25;;;;;;;;5053442;28;45688;-78
2021/07/13 13:05:00;;;;;;;;;23.75;21.00;;;;;;;;5054797;28;45525;-77
2021/07/13 13:07:25;;;;;;;;;20.50;19.50;;;;;;;;5054535;28;45925;-77
2021/07/13 13:09:51;;;;;;;;;22.50;19.50;;;;;;;;5053498;28;45718;-76
2021/07/13 13:12:16;;;;;;;;;23.00;21.75;;;;;;;;5054066;28;45491;-78
2021/07/13 13:14:45;;;;;;;;;24.75;20.75;;;;;;;;5053048;28;45558;-78
2021/07/13 13:17:13;;;;;;;;;26.00;19.75;;;;;;;;5053443;28;45919;-77
2021/07/13 13:19:40;;;;;;;;;23.00;20.00;;;;;;;;5053533;28;45727;-77
2021/07/13 13:22:06;;;;;;;;;20.75;17.50;;;;;;;;5051348;28;45537;-77
2021/07/13 13:24:31;;;;;;;;;26.50;24.00;;;;;;;;5052832;28;45411;-80
2021/07/13 13:26:56;;;;;;;;;27.00;23.25;;;;;;;;5051504;28;45949;-78
2021/07/13 13:29:21;;;;;;;;;22.25;22.25;;;;;;;;5052855;28;45442;-79
2021/07/13 13:31:47;;;;;;;;;23.00;19.33;;;;;;;;5050897;28;45563;-77
2021/07/13 13:34:12;;;;;;;;;23.33;20.00;;;;;;;;5057013;28;45354;-77
2021/07/13 13:36:41;;;;;;;;;28.00;20.67;;;;;;;;5058440;28;47042;-78
2021/07/13 13:39:18;;;;;;;;;25.75;19.00;;;;;;;;5051725;28;45841;-77
2021/07/13 13:41:44;;;;;;;;;30.00;22.50;;;;;;;;5052706;28;45471;-79
2021/07/13 13:44:09;;;;;;;;;23.00;21.75;;;;;;;;5064688;28;45300;-79
2021/07/13 13:46:34;;;;;;;;;24.50;24.25;;;;;;;;5061050;28;45576;-78
2021/07/13 13:49:00;;;;;;;;;29.00;27.25;;;;;;;;5054342;28;45395;-79
2021/07/13 13:51:25;;;;;;;;;32.67;27.67;;;;;;;;5053842;28;45694;-79
2021/07/13 13:53:50;;;;;;;;;37.00;25.25;;;;;;;;5054067;28;45900;-78
2021/07/13 13:56:19;;;;;;;;;30.75;25.25;;;;;;;;5063094;28;45499;-78
2021/07/13 13:58:44;;;;;;;;;33.25;28.50;;;;;;;;5063280;28;45969;-78
2021/07/13 14:01:10;;;;;;;;;36.33;31.33;;;;;;;;5057350;28;45634;-79
2021/07/13 14:03:36;;;;;;;;;38.00;31.50;;;;;;;;5054635;28;45507;-78
2021/07/13 14:06:01;;;;;;;;;40.75;31.75;;;;;;;;5057431;28;47136;-78
2021/07/13 14:08:27;;;;;;;;;47.50;36.75;;;;;;;;5051199;28;45589;-80
2021/07/13 14:10:52;;;;;;;;;39.00;33.00;;;;;;;;5054706;28;45336;-78
2021/07/13 14:13:17;;;;;;;;;39.33;34.33;;;;;;;;5049756;28;45525;-79
2021/07/13 14:15:42;;;;;;;;;41.00;32.67;;;;;;;;5048974;28;47153;-77
2021/07/13 14:18:08;;;;;;;;;44.25;36.25;;;;;;;;5051946;28;45487;-78
2021/07/13 14:20:33;;;;;;;;;35.75;33.50;;;;;;;;5051928;28;45631;-77